Webcam Flughafen St.Gallen-Altenrhein

Live-Bilder und Zeitraffer LSZR / ACH.

 

Live aus Altenrhein
LIVE
LSZR 150850Z VRB02KT 9999 SCT085 07/03 Q1008 NOSIG RMK A
Zeitraffer heute
2019-12-15 00:14:08
LSZR 142250Z AUTO 11004KT 090V150 9999 SCT065 04/01 Q1007